createdAt,value
2023-04-16T00:00:35.799Z,95085.02
2023-04-16T00:09:18.778Z,95065.34
2023-04-16T00:17:41.770Z,95043.31
2023-04-16T00:26:04.706Z,95024.86
2023-04-16T00:34:27.541Z,95020.44
2023-04-16T00:42:50.766Z,94999.63
2023-04-16T00:51:13.687Z,94970.98
2023-04-16T00:59:36.552Z,94958.35
2023-04-16T01:08:01.444Z,94949.17
2023-04-16T01:16:24.559Z,94934.15
2023-04-16T01:24:47.509Z,94940.02
2023-04-16T01:33:14.755Z,94951.29
2023-04-16T01:41:37.788Z,94946.62
2023-04-16T01:50:01.564Z,94942.44
2023-04-16T01:58:25.753Z,94923.94
2023-04-16T02:06:48.829Z,94920.27
2023-04-16T02:15:12.124Z,94924.18
2023-04-16T02:23:35.170Z,94912.27
2023-04-16T02:31:59.738Z,94893.88
2023-04-16T02:40:23.717Z,94866.58
2023-04-16T02:48:46.706Z,94835.45
2023-04-16T02:57:09.885Z,94814.86
2023-04-16T03:05:32.775Z,94811.96
2023-04-16T03:13:56.685Z,94795.28
2023-04-16T03:22:19.591Z,94798.45
2023-04-16T03:30:42.687Z,94809.45
2023-04-16T03:39:06.183Z,94796.09
2023-04-16T03:47:29.399Z,94782.58
2023-04-16T03:55:55.540Z,94788.45
2023-04-16T04:04:18.749Z,94822.92
2023-04-16T04:12:41.859Z,94852.40
2023-04-16T04:21:06.966Z,94912.94
2023-04-16T04:29:30.967Z,94961.77
2023-04-16T04:37:54.135Z,94984.50
2023-04-16T04:46:17.392Z,95024.31
2023-04-16T04:54:41.843Z,95069.27
2023-04-16T05:03:10.594Z,95082.77
2023-04-16T05:11:33.977Z,95108.86
2023-04-16T05:19:56.986Z,95151.52
2023-04-16T05:28:19.884Z,95206.55
2023-04-16T05:36:42.824Z,95271.83
2023-04-16T05:45:06.925Z,95312.73
2023-04-16T05:53:29.879Z,95350.34
2023-04-16T06:01:52.786Z,95361.67
2023-04-16T06:10:15.793Z,95374.17
2023-04-16T06:18:38.772Z,95410.29
2023-04-16T06:27:02.891Z,95453.77
2023-04-16T06:35:25.914Z,95501.34
2023-04-16T06:43:48.865Z,95530.09
2023-04-16T06:52:12.101Z,95558.15
2023-04-16T07:00:35.075Z,95597.11
2023-04-16T07:08:58.026Z,95625.15
2023-04-16T07:17:20.966Z,95674.23
2023-04-16T07:25:44.570Z,95703.42
2023-04-16T07:34:07.766Z,95754.74
2023-04-16T07:42:30.743Z,95840.94
2023-04-16T07:50:53.802Z,95912.75
2023-04-16T07:59:23.044Z,95994.58
2023-04-16T08:07:47.137Z,96221.40
2023-04-16T08:16:10.262Z,96461.73
2023-04-16T08:24:33.683Z,96587.00
2023-04-16T08:32:56.751Z,96694.92
2023-04-16T08:41:22.060Z,96830.34
2023-04-16T08:49:46.226Z,97064.67
2023-04-16T08:58:15.958Z,97188.38
2023-04-16T09:06:41.430Z,97241.00
2023-04-16T09:15:06.551Z,97226.45
2023-04-16T09:23:29.918Z,97328.24
2023-04-16T09:32:10.086Z,97582.77
2023-04-16T09:40:33.365Z,97566.02
2023-04-16T09:48:56.531Z,97511.16
2023-04-16T09:57:24.169Z,97547.31
2023-04-16T10:05:47.064Z,97506.23
2023-04-16T10:14:09.963Z,97549.41
2023-04-16T10:22:32.908Z,97672.25
2023-04-16T10:31:01.124Z,97902.95
2023-04-16T10:39:25.659Z,98180.74
2023-04-16T10:47:48.528Z,98344.37
2023-04-16T10:56:12.839Z,98398.08
2023-04-16T11:04:38.366Z,98465.68
2023-04-16T11:13:01.837Z,98379.02
2023-04-16T11:21:25.467Z,98232.77
2023-04-16T11:29:58.153Z,98235.02
2023-04-16T11:38:21.145Z,98348.15
2023-04-16T11:46:43.998Z,98321.41
2023-04-16T11:55:07.063Z,98247.08
2023-04-16T12:03:44.238Z,98245.80
2023-04-16T12:12:26.432Z,98390.23
2023-04-16T12:20:51.216Z,98444.23
2023-04-16T12:29:19.922Z,98619.65
2023-04-16T12:37:42.743Z,98789.72
2023-04-16T12:46:05.867Z,98963.67
2023-04-16T12:54:31.212Z,98953.45
2023-04-16T13:02:54.320Z,98843.20
2023-04-16T13:11:17.428Z,98714.57
2023-04-16T13:19:40.275Z,98646.36
2023-04-16T13:28:03.195Z,98596.46
2023-04-16T13:36:27.840Z,98674.92
2023-04-16T13:44:54.255Z,98670.22
2023-04-16T13:53:17.227Z,98591.66
2023-04-16T14:01:40.117Z,98505.84
2023-04-16T14:10:03.218Z,98477.19
2023-04-16T14:18:26.193Z,98457.20
2023-04-16T14:26:49.122Z,98467.27
2023-04-16T14:35:12.088Z,98489.46
2023-04-16T14:43:36.050Z,98591.77
2023-04-16T14:52:02.135Z,98683.05
2023-04-16T15:00:25.325Z,98718.98
2023-04-16T15:08:48.335Z,98684.58
2023-04-16T15:17:11.396Z,98542.50
2023-04-16T15:25:34.432Z,98340.20
2023-04-16T15:33:57.302Z,98200.88
2023-04-16T15:42:20.243Z,98097.48
2023-04-16T15:50:43.806Z,98025.47
2023-04-16T15:59:06.837Z,97945.57
2023-04-16T16:07:29.708Z,97859.51
2023-04-16T16:15:52.532Z,97789.68
2023-04-16T16:24:15.650Z,97723.70
2023-04-16T16:32:41.061Z,97664.38
2023-04-16T16:41:04.140Z,97619.70
2023-04-16T16:49:27.214Z,97562.21
2023-04-16T16:57:50.431Z,97493.67
2023-04-16T17:06:13.279Z,97430.90
2023-04-16T17:14:36.134Z,97361.33
2023-04-16T17:22:59.492Z,97296.80
2023-04-16T17:31:23.146Z,97243.86
2023-04-16T17:39:48.750Z,97196.06
2023-04-16T17:48:11.749Z,97137.02
2023-04-16T17:56:34.918Z,97078.91
2023-04-16T18:04:58.074Z,96996.01
2023-04-16T18:13:21.470Z,96933.04
2023-04-16T18:21:45.153Z,96878.66
2023-04-16T18:38:32.865Z,96761.54
2023-04-16T18:46:55.838Z,96695.15
2023-04-16T18:55:19.604Z,96648.86
2023-04-16T19:03:42.670Z,96575.81
2023-04-16T19:12:05.770Z,96469.86
2023-04-16T19:20:28.893Z,96376.61
2023-04-16T19:28:51.789Z,96333.45
2023-04-16T19:37:14.585Z,96332.63
2023-04-16T19:45:43.250Z,96310.95
2023-04-16T19:54:06.163Z,96268.80
2023-04-16T20:02:29.127Z,96268.84
2023-04-16T20:10:54.076Z,96258.50
2023-04-16T20:19:18.131Z,96205.08
2023-04-16T20:27:41.147Z,96135.55
2023-04-16T20:36:04.225Z,96068.76
2023-04-16T20:44:33.413Z,95975.25
2023-04-16T20:52:56.474Z,95877.89
2023-04-16T21:01:20.642Z,95805.69
2023-04-16T21:09:43.774Z,95738.16
2023-04-16T21:18:06.746Z,95650.17
2023-04-16T21:26:29.772Z,95613.41
2023-04-16T21:34:53.166Z,95584.85
2023-04-16T21:43:25.208Z,95517.59
2023-04-16T21:51:48.059Z,95461.89
2023-04-16T22:00:14.789Z,95416.33
2023-04-16T22:08:37.983Z,95318.59
2023-04-16T22:17:01.957Z,95227.76
2023-04-16T22:25:25.098Z,95145.16
2023-04-16T22:33:48.073Z,95050.95
2023-04-16T22:42:11.571Z,95007.16
2023-04-16T22:50:34.488Z,94960.68
2023-04-16T22:58:57.744Z,94895.83
2023-04-16T23:07:20.593Z,94821.81
2023-04-16T23:15:43.843Z,94752.67
2023-04-16T23:24:07.547Z,94693.33
2023-04-16T23:32:30.396Z,94666.38
2023-04-16T23:40:53.436Z,94638.27
2023-04-16T23:49:16.329Z,94611.83
2023-04-16T23:57:39.150Z,94585.56
